createdAt,value
2018-08-10T00:00:55.872Z,89.43
2018-08-10T00:01:55.870Z,89.23
2018-08-10T00:02:55.873Z,89.14
2018-08-10T00:03:55.863Z,89.43
2018-08-10T00:04:55.864Z,89.62
2018-08-10T00:05:55.607Z,89.33
2018-08-10T00:06:55.609Z,88.85
2018-08-10T00:07:55.856Z,89.23
2018-08-10T00:08:55.969Z,89.53
2018-08-10T00:09:55.850Z,89.23
2018-08-10T00:10:55.598Z,89.23
2018-08-10T00:11:55.850Z,88.75
2018-08-10T00:12:55.851Z,89.53
2018-08-10T00:13:55.844Z,89.23
2018-08-10T00:14:55.844Z,89.53
2018-08-10T00:15:55.840Z,89.43
2018-08-10T00:16:55.586Z,89.62
2018-08-10T00:17:55.840Z,89.23
2018-08-10T00:18:55.841Z,89.33
2018-08-10T00:19:55.834Z,89.43
2018-08-10T00:20:55.578Z,89.43
2018-08-10T00:21:55.834Z,89.23
2018-08-10T00:22:55.828Z,89.23
2018-08-10T00:23:55.822Z,89.62
2018-08-10T00:24:55.823Z,89.62
2018-08-10T00:25:55.818Z,88.95
2018-08-10T00:26:55.565Z,89.33
2018-08-10T00:27:55.814Z,89.33
2018-08-10T00:28:55.812Z,89.33
2018-08-10T00:29:55.815Z,89.33
2018-08-10T00:30:55.812Z,89.43
2018-08-10T00:31:55.805Z,89.72
2018-08-10T00:32:55.809Z,89.67
2018-08-10T00:33:55.801Z,89.53
2018-08-10T00:34:55.801Z,89.58
2018-08-10T00:35:55.798Z,89.29
2018-08-10T00:36:55.543Z,89.53
2018-08-10T00:37:55.796Z,89.29
2018-08-10T00:38:55.793Z,89.67
2018-08-10T00:39:55.536Z,89.39
2018-08-10T00:40:55.789Z,89.58
2018-08-10T00:41:55.785Z,89.48
2018-08-10T00:42:55.779Z,89.48
2018-08-10T00:43:55.782Z,89.19
2018-08-10T00:44:55.775Z,89.48
2018-08-10T00:45:55.774Z,89.48
2018-08-10T00:46:55.772Z,89.67
2018-08-10T00:47:55.771Z,89.77
2018-08-10T00:48:55.767Z,89.67
2018-08-10T00:49:55.766Z,89.39
2018-08-10T00:50:55.512Z,89.86
2018-08-10T00:51:55.762Z,89.39
2018-08-10T00:52:55.758Z,89.39
2018-08-10T00:53:55.755Z,89.67
2018-08-10T00:54:55.753Z,89.58
2018-08-10T00:55:55.752Z,89.09
2018-08-10T00:56:55.750Z,89.77
2018-08-10T00:57:55.745Z,89.86
2018-08-10T00:58:55.745Z,89.39
2018-08-10T00:59:55.742Z,89.39
2018-08-10T01:00:55.740Z,89.67
2018-08-10T01:01:55.743Z,89.48
2018-08-10T01:02:55.770Z,89.39
2018-08-10T01:03:55.738Z,89.29
2018-08-10T01:04:55.733Z,89.09
2018-08-10T01:05:55.733Z,89
2018-08-10T01:06:55.728Z,89.09
2018-08-10T01:07:55.722Z,89.39
2018-08-10T01:08:55.720Z,89.39
2018-08-10T01:09:55.772Z,89.39
2018-08-10T01:10:55.465Z,89.29
2018-08-10T01:11:55.717Z,89.09
2018-08-10T01:12:55.714Z,89.43
2018-08-10T01:13:55.727Z,89.53
2018-08-10T01:14:55.706Z,89.34
2018-08-10T01:15:55.452Z,89.43
2018-08-10T01:16:55.705Z,89.43
2018-08-10T01:17:55.699Z,89.34
2018-08-10T01:18:55.696Z,89.82
2018-08-10T01:19:55.695Z,89.72
2018-08-10T01:20:55.691Z,89.72
2018-08-10T01:21:55.690Z,89.43
2018-08-10T01:22:55.686Z,89.82
2018-08-10T01:23:55.686Z,89.43
2018-08-10T01:24:55.731Z,89.53
2018-08-10T01:25:55.929Z,89.53
2018-08-10T01:26:55.678Z,89.72
2018-08-10T01:27:55.423Z,89.72
2018-08-10T01:28:55.515Z,89.82
2018-08-10T01:29:55.669Z,89.63
2018-08-10T01:30:55.666Z,89.82
2018-08-10T01:31:55.668Z,89.72
2018-08-10T01:32:55.661Z,89.43
2018-08-10T01:33:55.668Z,89.82
2018-08-10T01:34:55.655Z,89.82
2018-08-10T01:35:55.653Z,90.11
2018-08-10T01:36:55.399Z,89.72
2018-08-10T01:37:55.648Z,89.72
2018-08-10T01:38:55.645Z,89.72
2018-08-10T01:39:55.643Z,89.58
2018-08-10T01:40:55.642Z,89.72
2018-08-10T01:41:55.637Z,90.11
2018-08-10T01:42:55.636Z,89.72
2018-08-10T01:43:55.633Z,89.78
2018-08-10T01:44:55.630Z,89.97
2018-08-10T01:45:55.627Z,89.72
2018-08-10T01:46:55.633Z,90.06
2018-08-10T01:47:55.623Z,90.26
2018-08-10T01:48:55.620Z,90.16
2018-08-10T01:49:55.366Z,90.01
2018-08-10T01:50:55.616Z,89.97
2018-08-10T01:51:55.612Z,90.06
2018-08-10T01:52:55.618Z,90.16
2018-08-10T01:53:55.608Z,89.78
2018-08-10T01:54:55.353Z,89.78
2018-08-10T01:55:55.648Z,90.06
2018-08-10T01:56:55.857Z,90.06
2018-08-10T01:57:55.596Z,90.06
2018-08-10T01:58:55.594Z,90.16
2018-08-10T01:59:55.595Z,90.06
2018-08-10T02:00:55.338Z,90.16
2018-08-10T02:01:55.587Z,90.16
2018-08-10T02:02:55.582Z,89.97
2018-08-10T02:03:55.580Z,90.16
2018-08-10T02:04:55.578Z,90.16
2018-08-10T02:05:55.324Z,90.06
2018-08-10T02:06:55.319Z,89.97
2018-08-10T02:07:55.568Z,89.78
2018-08-10T02:08:55.565Z,89.97
2018-08-10T02:09:55.563Z,90.16
2018-08-10T02:10:55.309Z,90.26
2018-08-10T02:11:55.306Z,90.26
2018-08-10T02:12:55.557Z,90.35
2018-08-10T02:13:55.552Z,90.16
2018-08-10T02:14:55.550Z,90.06
2018-08-10T02:15:55.551Z,90.16
2018-08-10T02:16:55.546Z,90.06
2018-08-10T02:17:55.541Z,89.97
2018-08-10T02:18:55.537Z,90.26
2018-08-10T02:19:55.536Z,90.26
2018-08-10T02:20:55.581Z,90.26
2018-08-10T02:21:55.530Z,90.16
2018-08-10T02:22:55.526Z,90.45
2018-08-10T02:23:55.525Z,90.35
2018-08-10T02:24:55.524Z,90.45
2018-08-10T02:25:55.268Z,91.22
2018-08-10T02:26:55.515Z,91.22
2018-08-10T02:27:55.519Z,90.93
2018-08-10T02:28:55.512Z,90.93
2018-08-10T02:29:55.507Z,91.03
2018-08-10T02:30:55.253Z,90.83
2018-08-10T02:31:55.504Z,91.03
2018-08-10T02:32:55.500Z,90.89
2018-08-10T02:33:55.495Z,90.79
2018-08-10T02:34:55.494Z,90.89
2018-08-10T02:35:55.238Z,90.79
2018-08-10T02:36:55.493Z,90.73
2018-08-10T02:37:55.485Z,90.93
2018-08-10T02:38:55.484Z,91.03
2018-08-10T02:39:55.479Z,90.83
2018-08-10T02:40:55.485Z,90.73
2018-08-10T02:41:55.474Z,90.83
2018-08-10T02:42:55.473Z,90.64
2018-08-10T02:43:55.467Z,91.31
2018-08-10T02:44:55.467Z,91.22
2018-08-10T02:45:55.469Z,90.83
2018-08-10T02:46:55.206Z,91.03
2018-08-10T02:47:55.469Z,90.93
2018-08-10T02:48:55.453Z,91.13
2018-08-10T02:49:55.202Z,91.03
2018-08-10T02:50:55.449Z,91.13
2018-08-10T02:51:55.193Z,91.03
2018-08-10T02:52:55.441Z,90.93
2018-08-10T02:53:55.443Z,91.41
2018-08-10T02:54:55.435Z,91.31
2018-08-10T02:55:55.432Z,91.51
2018-08-10T02:56:55.178Z,91.31
2018-08-10T02:57:55.427Z,91.31
2018-08-10T02:58:55.425Z,91.7
2018-08-10T02:59:55.423Z,91.03
2018-08-10T03:00:55.419Z,91.08
2018-08-10T03:01:55.422Z,91.99
2018-08-10T03:02:55.413Z,91.41
2018-08-10T03:03:55.409Z,91.56
2018-08-10T03:04:55.155Z,91.85
2018-08-10T03:05:55.404Z,91.66
2018-08-10T03:06:55.153Z,91.8
2018-08-10T03:07:55.405Z,91.89
2018-08-10T03:08:55.144Z,91.94
2018-08-10T03:09:55.396Z,91.56
2018-08-10T03:10:55.394Z,91.7
2018-08-10T03:11:55.387Z,91.99
2018-08-10T03:12:55.131Z,91.8
2018-08-10T03:13:55.383Z,91.99
2018-08-10T03:14:55.127Z,91.7
2018-08-10T03:15:55.377Z,91.94
2018-08-10T03:16:55.120Z,91.7
2018-08-10T03:17:55.376Z,91.8
2018-08-10T03:18:55.366Z,91.8
2018-08-10T03:19:55.361Z,91.7
2018-08-10T03:20:55.365Z,91.89
2018-08-10T03:21:55.389Z,91.89
2018-08-10T03:22:55.362Z,91.7
2018-08-10T03:23:55.353Z,91.99
2018-08-10T03:24:55.348Z,91.89
2018-08-10T03:25:55.347Z,91.22
2018-08-10T03:26:55.090Z,91.99
2018-08-10T03:27:55.089Z,92.08
2018-08-10T03:28:55.341Z,91.41
2018-08-10T03:29:55.337Z,91.22
2018-08-10T03:30:55.333Z,91.13
2018-08-10T03:31:55.334Z,91.22
2018-08-10T03:32:55.328Z,91.36
2018-08-10T03:33:55.324Z,91.55
2018-08-10T03:34:55.319Z,91.55
2018-08-10T03:35:55.318Z,92.13
2018-08-10T03:36:55.314Z,91.75
2018-08-10T03:37:55.059Z,91.65
2018-08-10T03:38:55.310Z,91.65
2018-08-10T03:39:55.309Z,91.65
2018-08-10T03:40:55.304Z,91.75
2018-08-10T03:41:55.049Z,92.03
2018-08-10T03:42:55.301Z,91.84
2018-08-10T03:43:55.043Z,91.84
2018-08-10T03:44:55.292Z,92.03
2018-08-10T03:45:55.289Z,92.03
2018-08-10T03:46:55.286Z,92.13
2018-08-10T03:47:55.284Z,92.47
2018-08-10T03:48:55.280Z,92.47
2018-08-10T03:49:55.455Z,92.32
2018-08-10T03:50:55.276Z,92.08
2018-08-10T03:51:55.022Z,92.08
2018-08-10T03:52:55.270Z,92.08
2018-08-10T03:53:55.269Z,92.37
2018-08-10T03:54:55.265Z,92.37
2018-08-10T03:55:55.262Z,92.27
2018-08-10T03:56:55.261Z,92.18
2018-08-10T03:57:55.259Z,92.18
2018-08-10T03:58:55.005Z,92.85
2018-08-10T03:59:55.252Z,92.18
2018-08-10T04:00:55.257Z,92.27
2018-08-10T04:01:55.497Z,92.37
2018-08-10T04:02:55.245Z,92.47
2018-08-10T04:03:55.246Z,92.47
2018-08-10T04:04:55.239Z,92.76
2018-08-10T04:05:55.237Z,92.47
2018-08-10T04:06:55.233Z,92.18
2018-08-10T04:07:55.239Z,92.18
2018-08-10T04:08:55.255Z,92.76
2018-08-10T04:09:55.230Z,92.37
2018-08-10T04:10:55.225Z,92.99
2018-08-10T04:11:55.232Z,92.85
2018-08-10T04:12:55.219Z,93.04
2018-08-10T04:13:55.217Z,92.71
2018-08-10T04:14:55.217Z,92.51
2018-08-10T04:15:55.216Z,92.51
2018-08-10T04:16:55.209Z,92.61
2018-08-10T04:17:55.208Z,92.41
2018-08-10T04:18:55.203Z,92.61
2018-08-10T04:19:55.208Z,92.41
2018-08-10T04:20:55.201Z,92.71
2018-08-10T04:21:54.947Z,92.71
2018-08-10T04:22:55.202Z,92.22
2018-08-10T04:23:55.193Z,92.32
2018-08-10T04:24:55.191Z,92.41
2018-08-10T04:25:55.188Z,92.41
2018-08-10T04:26:55.186Z,92.22
2018-08-10T04:27:54.932Z,91.93
2018-08-10T04:28:55.182Z,92.13
2018-08-10T04:29:55.183Z,92.13
2018-08-10T04:30:55.179Z,92.36
2018-08-10T04:31:55.177Z,92.36
2018-08-10T04:32:55.426Z,92.36
2018-08-10T04:33:55.177Z,92.08
2018-08-10T04:34:55.168Z,91.98
2018-08-10T04:35:55.178Z,92.08
2018-08-10T04:36:55.169Z,92.36
2018-08-10T04:37:55.163Z,92.17
2018-08-10T04:38:55.163Z,91.6
2018-08-10T04:39:55.157Z,91.98
2018-08-10T04:40:55.155Z,91.88
2018-08-10T04:41:55.153Z,91.6
2018-08-10T04:42:55.153Z,91.5
2018-08-10T04:43:55.148Z,91.4
2018-08-10T04:44:55.146Z,91.74
2018-08-10T04:45:55.148Z,91.5
2018-08-10T04:46:54.892Z,91.5
2018-08-10T04:47:55.139Z,91.54
2018-08-10T04:48:54.888Z,91.88
2018-08-10T04:49:55.136Z,91.16
2018-08-10T04:50:55.137Z,91.16
2018-08-10T04:51:54.881Z,90.96
2018-08-10T04:52:55.132Z,91.93
2018-08-10T04:53:55.133Z,91.74
2018-08-10T04:54:55.125Z,91.93
2018-08-10T04:55:55.125Z,91.93
2018-08-10T04:56:55.129Z,92.02
2018-08-10T04:57:54.869Z,90.96
2018-08-10T04:58:55.119Z,91.25
2018-08-10T04:59:55.122Z,91.25
2018-08-10T05:00:55.117Z,90.87
2018-08-10T05:01:55.114Z,91.35
2018-08-10T05:02:54.860Z,91.54
2018-08-10T05:03:55.365Z,91.16
2018-08-10T05:04:54.860Z,91.35
2018-08-10T05:05:55.105Z,91.35
2018-08-10T05:06:55.103Z,91.25
2018-08-10T05:07:55.102Z,91.35
2018-08-10T05:08:55.099Z,91.25
2018-08-10T05:09:55.285Z,90.96
2018-08-10T05:10:55.095Z,91.06
2018-08-10T05:11:55.095Z,91.35
2018-08-10T05:12:54.844Z,90.96
2018-08-10T05:13:54.837Z,91.25
2018-08-10T05:14:55.087Z,91.16
2018-08-10T05:15:54.834Z,90.77
2018-08-10T05:16:55.087Z,91.06
2018-08-10T05:17:55.083Z,91.25
2018-08-10T05:18:55.086Z,91.25
2018-08-10T05:19:55.084Z,90.77
2018-08-10T05:20:54.826Z,90.67
2018-08-10T05:21:54.825Z,90.96
2018-08-10T05:22:55.071Z,90.58
2018-08-10T05:23:55.074Z,90.19
2018-08-10T05:24:55.069Z,90.48
2018-08-10T05:25:55.172Z,90.48
2018-08-10T05:26:55.072Z,90.48
2018-08-10T05:27:55.066Z,90.09
2018-08-10T05:28:55.063Z,90.23
2018-08-10T05:29:55.060Z,89.95
2018-08-10T05:30:55.058Z,89.95
2018-08-10T05:31:54.803Z,90.14
2018-08-10T05:32:55.055Z,90.14
2018-08-10T05:33:54.802Z,89.65
2018-08-10T05:34:55.466Z,89.37
2018-08-10T05:35:55.053Z,89.37
2018-08-10T05:36:55.048Z,89.27
2018-08-10T05:37:55.051Z,89.07
2018-08-10T05:38:55.045Z,88.98
2018-08-10T05:39:55.048Z,88.79
2018-08-10T05:40:54.790Z,89.07
2018-08-10T05:41:55.048Z,89.47
2018-08-10T05:42:55.038Z,88.5
2018-08-10T05:43:55.113Z,88.35
2018-08-10T05:44:55.038Z,88.06
2018-08-10T05:45:55.036Z,88.25
2018-08-10T05:46:54.873Z,88.15
2018-08-10T05:47:55.085Z,88.73
2018-08-10T05:48:55.041Z,88.45
2018-08-10T05:49:55.135Z,87.96
2018-08-10T05:50:55.109Z,87.67
2018-08-10T05:51:55.027Z,87.29
2018-08-10T05:52:55.024Z,87.38
2018-08-10T05:53:55.023Z,87.67
2018-08-10T05:54:54.770Z,87.19
2018-08-10T05:55:55.020Z,87.04
2018-08-10T05:56:54.766Z,87.04
2018-08-10T05:57:55.018Z,86.85
2018-08-10T05:58:55.021Z,87.04
2018-08-10T05:59:55.015Z,85.98
2018-08-10T06:00:55.020Z,86.56
2018-08-10T06:01:54.760Z,86.17
2018-08-10T06:02:54.763Z,86.46
2018-08-10T06:03:55.604Z,86.36
2018-08-10T06:04:55.010Z,86.6
2018-08-10T06:05:55.013Z,86.27
2018-08-10T06:06:54.756Z,86.02
2018-08-10T06:07:54.761Z,85.78
2018-08-10T06:08:55.006Z,85.4
2018-08-10T06:09:55.005Z,85.53
2018-08-10T06:10:55.010Z,85.69
2018-08-10T06:11:54.750Z,85.83
2018-08-10T06:12:55.005Z,85.73
2018-08-10T06:13:55.000Z,85.69
2018-08-10T06:14:54.747Z,85.73
2018-08-10T06:15:54.999Z,85.83
2018-08-10T06:16:54.750Z,85.73
2018-08-10T06:17:54.998Z,83.89
2018-08-10T06:18:54.996Z,83.8
2018-08-10T06:19:55.126Z,84.09
2018-08-10T06:20:54.743Z,84.09
2018-08-10T06:21:54.744Z,83.89
2018-08-10T06:22:55.101Z,83.89
2018-08-10T06:23:54.993Z,83.8
2018-08-10T06:24:54.770Z,83.31
2018-08-10T06:25:54.989Z,83.31
2018-08-10T06:26:54.991Z,83.41
2018-08-10T06:27:55.277Z,83.03
2018-08-10T06:28:54.990Z,83.51
2018-08-10T06:29:54.987Z,83.41
2018-08-10T06:30:54.988Z,83.41
2018-08-10T06:31:54.992Z,83.12
2018-08-10T06:32:54.991Z,83.61
2018-08-10T06:33:55.278Z,82.83
2018-08-10T06:34:54.984Z,82.54
2018-08-10T06:35:54.986Z,82.83
2018-08-10T06:36:54.989Z,82.64
2018-08-10T06:37:54.981Z,83.08
2018-08-10T06:38:54.984Z,82.64
2018-08-10T06:39:55.196Z,83.18
2018-08-10T06:40:54.981Z,82.5
2018-08-10T06:41:54.728Z,81.92
2018-08-10T06:42:54.728Z,81.82
2018-08-10T06:43:54.978Z,81.15
2018-08-10T06:44:55.185Z,80.38
2018-08-10T06:45:54.974Z,80.28
2018-08-10T06:46:54.975Z,79.5
2018-08-10T06:47:54.976Z,79.5
2018-08-10T06:48:54.720Z,78.92
2018-08-10T06:49:54.974Z,78.64
2018-08-10T06:50:54.973Z,78.34
2018-08-10T06:51:54.970Z,78.5
2018-08-10T06:52:54.723Z,77.92
2018-08-10T06:53:54.968Z,78.02
2018-08-10T06:54:54.964Z,78.21
2018-08-10T06:55:55.265Z,78.41
2018-08-10T06:56:54.712Z,77.63
2018-08-10T06:57:54.966Z,77.53
2018-08-10T06:58:55.003Z,76.95
2018-08-10T06:59:54.962Z,77.15
2018-08-10T07:00:54.774Z,77.15
2018-08-10T07:01:54.965Z,76.67
2018-08-10T07:02:54.958Z,76.76
2018-08-10T07:03:54.958Z,76.28
2018-08-10T07:04:54.959Z,76.76
2018-08-10T07:05:54.952Z,76.86
2018-08-10T07:06:54.951Z,76.72
2018-08-10T07:07:55.194Z,76.43
2018-08-10T07:08:54.697Z,76.53
2018-08-10T07:09:54.946Z,76.53
2018-08-10T07:10:54.954Z,76.82
2018-08-10T07:11:54.945Z,76.72
2018-08-10T07:12:54.980Z,76.95
2018-08-10T07:13:54.945Z,77.4
2018-08-10T07:14:54.941Z,77.53
2018-08-10T07:15:54.940Z,77.59
2018-08-10T07:16:54.939Z,77.25
2018-08-10T07:17:54.939Z,76.72
2018-08-10T07:18:54.939Z,76.86
2018-08-10T07:19:54.946Z,76.47
2018-08-10T07:20:54.934Z,76.28
2018-08-10T07:21:54.935Z,75.99
2018-08-10T07:22:54.679Z,76.37
2018-08-10T07:23:54.933Z,75.89
2018-08-10T07:24:54.928Z,75.26
2018-08-10T07:25:54.930Z,74.1
2018-08-10T07:26:54.930Z,74.19
2018-08-10T07:27:54.925Z,73.46
2018-08-10T07:28:54.943Z,73.07
2018-08-10T07:29:54.930Z,73.07
2018-08-10T07:30:54.931Z,73.01
2018-08-10T07:31:54.934Z,73.49
2018-08-10T07:32:54.926Z,72.72
2018-08-10T07:33:54.925Z,72.24
2018-08-10T07:34:54.924Z,72.04
2018-08-10T07:35:54.926Z,71.36
2018-08-10T07:36:54.923Z,71.94
2018-08-10T07:37:54.672Z,72.14
2018-08-10T07:38:54.922Z,71.66
2018-08-10T07:39:54.922Z,71.56
2018-08-10T07:40:54.924Z,71.26
2018-08-10T07:41:54.671Z,70.78
2018-08-10T07:42:54.923Z,71.14
2018-08-10T07:43:54.920Z,70.94
2018-08-10T07:44:54.925Z,71.62
2018-08-10T07:45:54.931Z,70.75
2018-08-10T07:46:54.674Z,70.94
2018-08-10T07:47:54.669Z,70.9
2018-08-10T07:48:54.920Z,71.14
2018-08-10T07:49:54.921Z,70.94
2018-08-10T07:50:54.920Z,70.46
2018-08-10T07:51:54.926Z,71.33
2018-08-10T07:52:54.922Z,70.46
2018-08-10T07:53:54.920Z,70.56
2018-08-10T07:54:54.919Z,69.98
2018-08-10T07:55:54.922Z,69.59
2018-08-10T07:56:54.921Z,69.04
2018-08-10T07:57:54.920Z,68.95
2018-08-10T07:58:55.013Z,69.1
2018-08-10T07:59:54.924Z,69.3
2018-08-10T08:00:54.919Z,69.49
2018-08-10T08:01:54.932Z,68.72
2018-08-10T08:02:54.921Z,69.88
2018-08-10T08:03:54.923Z,69.88
2018-08-10T08:04:54.919Z,69.24
2018-08-10T08:05:54.923Z,69.04
2018-08-10T08:06:54.726Z,68.46
2018-08-10T08:07:54.957Z,68.37
2018-08-10T08:08:54.944Z,67.69
2018-08-10T08:09:54.920Z,67.3
2018-08-10T08:10:55.173Z,67.01
2018-08-10T08:11:54.926Z,66.14
2018-08-10T08:12:54.927Z,65.66
2018-08-10T08:13:54.925Z,65.85
2018-08-10T08:14:54.920Z,65.95
2018-08-10T08:15:54.925Z,66.53
2018-08-10T08:16:54.675Z,66.43
2018-08-10T08:17:55.002Z,65.75
2018-08-10T08:18:54.924Z,65.37
2018-08-10T08:19:55.071Z,65.47
2018-08-10T08:20:54.921Z,65.66
2018-08-10T08:21:54.669Z,65.11
2018-08-10T08:22:54.923Z,64.72
2018-08-10T08:23:54.923Z,65.2
2018-08-10T08:24:54.921Z,63.95
2018-08-10T08:25:54.925Z,64.04
2018-08-10T08:26:54.669Z,63.98
2018-08-10T08:27:54.923Z,63.69
2018-08-10T08:28:54.944Z,63.49
2018-08-10T08:29:54.923Z,62.95
2018-08-10T08:30:54.674Z,62.66
2018-08-10T08:31:54.925Z,61.79
2018-08-10T08:32:54.928Z,61.69
2018-08-10T08:33:54.925Z,61.72
2018-08-10T08:34:55.412Z,60.94
2018-08-10T08:35:54.678Z,61.62
2018-08-10T08:36:54.722Z,60.58
2018-08-10T08:37:54.937Z,60.2
2018-08-10T08:38:54.937Z,59.55
2018-08-10T08:39:54.937Z,58.77
2018-08-10T08:40:54.984Z,57.8
2018-08-10T08:41:54.940Z,57.32
2018-08-10T08:42:54.944Z,57.44
2018-08-10T08:43:54.951Z,57.15
2018-08-10T08:44:54.696Z,56.47
2018-08-10T08:45:55.710Z,57.64
2018-08-10T08:46:54.956Z,57.44
2018-08-10T08:47:54.704Z,57.93
2018-08-10T08:48:54.958Z,57.93
2018-08-10T08:49:54.966Z,57.28
2018-08-10T08:50:54.965Z,56.79
2018-08-10T08:51:54.716Z,56.3
2018-08-10T08:52:54.972Z,56.4
2018-08-10T08:53:54.762Z,56.04
2018-08-10T08:54:54.724Z,53.91
2018-08-10T08:55:54.978Z,54.85
2018-08-10T08:56:54.729Z,54.94
2018-08-10T08:57:54.984Z,55.82
2018-08-10T08:58:54.992Z,55.92
2018-08-10T08:59:55.032Z,55.65
2018-08-10T09:00:54.996Z,55.65
2018-08-10T09:01:54.997Z,55.65
2018-08-10T09:02:54.748Z,54.71
2018-08-10T09:03:55.004Z,54.13
2018-08-10T09:04:54.755Z,53.54
2018-08-10T09:05:55.012Z,53.83
2018-08-10T09:06:54.761Z,53.83
2018-08-10T09:07:55.025Z,53.57
2018-08-10T09:08:55.034Z,52.69
2018-08-10T09:09:55.027Z,52.79
2018-08-10T09:10:55.032Z,52.69
2018-08-10T09:11:55.033Z,52.69
2018-08-10T09:12:55.040Z,52.04
2018-08-10T09:13:55.039Z,51.17
2018-08-10T09:14:55.044Z,51.84
2018-08-10T09:15:55.047Z,52.31
2018-08-10T09:16:55.098Z,52.53
2018-08-10T09:17:55.053Z,51.65
2018-08-10T09:18:55.058Z,50.97
2018-08-10T09:19:55.060Z,50.36
2018-08-10T09:20:55.068Z,51.23
2018-08-10T09:21:54.819Z,51.43
2018-08-10T09:22:55.072Z,50.85
2018-08-10T09:23:54.829Z,50.75
2018-08-10T09:24:55.083Z,51.33
2018-08-10T09:25:55.084Z,51.43
2018-08-10T09:26:54.870Z,51.4
2018-08-10T09:27:55.102Z,51.7
2018-08-10T09:28:55.093Z,51.6
2018-08-10T09:29:55.097Z,51.79
2018-08-10T09:30:55.104Z,52.19
2018-08-10T09:31:55.106Z,51.89
2018-08-10T09:32:54.856Z,52.37
2018-08-10T09:33:55.111Z,52.76
2018-08-10T09:34:55.113Z,51.6
2018-08-10T09:35:55.125Z,51.5
2018-08-10T09:36:54.868Z,51.6
2018-08-10T09:37:55.124Z,51.97
2018-08-10T09:38:55.128Z,51.89
2018-08-10T09:39:55.129Z,51.6
2018-08-10T09:40:55.138Z,51.11
2018-08-10T09:41:54.884Z,51.31
2018-08-10T09:42:55.139Z,51.31
2018-08-10T09:43:55.142Z,50.82
2018-08-10T09:44:55.154Z,50.63
2018-08-10T09:45:55.153Z,50.92
2018-08-10T09:46:54.906Z,50.63
2018-08-10T09:47:55.165Z,50.82
2018-08-10T09:48:54.908Z,50.73
2018-08-10T09:49:55.164Z,50.24
2018-08-10T09:50:55.167Z,50.07
2018-08-10T09:51:55.387Z,49.78
2018-08-10T09:52:55.173Z,49.19
2018-08-10T09:53:55.174Z,48.71
2018-08-10T09:54:55.235Z,48.71
2018-08-10T09:55:55.187Z,48.51
2018-08-10T09:56:55.186Z,48.71
2018-08-10T09:57:55.252Z,49.19
2018-08-10T09:58:55.193Z,48.51
2018-08-10T09:59:55.404Z,48.8
2018-08-10T10:00:55.204Z,48.51
2018-08-10T10:01:55.204Z,48.44
2018-08-10T10:02:55.206Z,48.34
2018-08-10T10:03:55.211Z,47.96
2018-08-10T10:04:55.214Z,47.3
2018-08-10T10:05:55.218Z,47.2
2018-08-10T10:06:55.224Z,47.3
2018-08-10T10:07:55.227Z,46.91
2018-08-10T10:08:55.272Z,47.13
2018-08-10T10:09:55.236Z,47.52
2018-08-10T10:10:55.238Z,47.13
2018-08-10T10:11:54.992Z,46.44
2018-08-10T10:12:55.252Z,45.57
2018-08-10T10:13:55.302Z,46.08
2018-08-10T10:14:55.256Z,45.68
2018-08-10T10:15:55.261Z,45.2
2018-08-10T10:16:55.267Z,45.39
2018-08-10T10:17:55.016Z,44.81
2018-08-10T10:18:55.272Z,44.81
2018-08-10T10:19:55.278Z,45.29
2018-08-10T10:20:55.340Z,45.1
2018-08-10T10:21:55.037Z,44.24
2018-08-10T10:22:55.291Z,43.76
2018-08-10T10:23:55.299Z,43.76
2018-08-10T10:24:55.299Z,43.47
2018-08-10T10:25:55.054Z,42.69
2018-08-10T10:26:55.058Z,42.69
2018-08-10T10:27:55.062Z,42.79
2018-08-10T10:28:55.329Z,43
2018-08-10T10:29:55.329Z,43
2018-08-10T10:30:55.331Z,42.61
2018-08-10T10:31:55.083Z,41.75
2018-08-10T10:32:55.347Z,41.56
2018-08-10T10:33:55.346Z,41.36
2018-08-10T10:34:55.351Z,41.36
2018-08-10T10:35:55.358Z,41.36
2018-08-10T10:36:55.361Z,41.17
2018-08-10T10:37:55.367Z,41.17
2018-08-10T10:38:55.371Z,40.68
2018-08-10T10:39:55.383Z,40.68
2018-08-10T10:40:55.383Z,40.76
2018-08-10T10:41:55.396Z,40.66
2018-08-10T10:42:55.393Z,40.47
2018-08-10T10:43:55.400Z,40.76
2018-08-10T10:44:55.404Z,40.66
2018-08-10T10:45:55.409Z,40.25
2018-08-10T10:46:55.414Z,40.66
2018-08-10T10:47:55.419Z,40.66
2018-08-10T10:48:55.426Z,40.17
2018-08-10T10:49:55.431Z,40.27
2018-08-10T10:50:55.585Z,40.27
2018-08-10T10:51:55.190Z,40.19
2018-08-10T10:52:55.446Z,39.12
2018-08-10T10:53:55.453Z,39.31
2018-08-10T10:54:55.458Z,39.7
2018-08-10T10:55:55.212Z,39.22
2018-08-10T10:56:55.639Z,39.02
2018-08-10T10:57:55.728Z,38.82
2018-08-10T10:59:10.405Z,37.77
2018-08-10T10:59:55.487Z,38.55
2018-08-10T11:00:55.495Z,38.63
2018-08-10T11:01:55.496Z,38.92
2018-08-10T11:02:55.506Z,38.24
2018-08-10T11:03:55.507Z,38.53
2018-08-10T11:04:55.513Z,38.34
2018-08-10T11:05:55.267Z,39.02
2018-08-10T11:06:55.273Z,38.63
2018-08-10T11:07:55.532Z,38.43
2018-08-10T11:08:55.535Z,38.82
2018-08-10T11:09:55.542Z,38.53
2018-08-10T11:10:55.547Z,39.22
2018-08-10T11:11:55.299Z,38.61
2018-08-10T11:12:55.557Z,38.9
2018-08-10T11:13:55.563Z,38.61
2018-08-10T11:14:55.569Z,39.1
2018-08-10T11:15:55.322Z,38.32
2018-08-10T11:16:55.579Z,38.42
2018-08-10T11:17:55.630Z,38.79
2018-08-10T11:18:55.341Z,39.2
2018-08-10T11:19:55.599Z,39.67
2018-08-10T11:20:55.602Z,39.98
2018-08-10T11:21:55.358Z,39.29
2018-08-10T11:22:55.615Z,39.29
2018-08-10T11:23:55.686Z,38.22
2018-08-10T11:24:55.625Z,37.95
2018-08-10T11:25:55.382Z,38.42
2018-08-10T11:26:55.636Z,37.73
2018-08-10T11:27:55.660Z,37.83
2018-08-10T11:28:55.644Z,38.32
2018-08-10T11:29:55.401Z,37.73
2018-08-10T11:30:55.657Z,37.93
2018-08-10T11:31:55.776Z,38.51
2018-08-10T11:32:55.667Z,38.71
2018-08-10T11:33:55.673Z,38.71
2018-08-10T11:34:55.677Z,38.22
2018-08-10T11:35:55.686Z,38.42
2018-08-10T11:36:55.436Z,38.81
2018-08-10T11:37:55.694Z,38.81
2018-08-10T11:38:55.700Z,38.51
2018-08-10T11:39:55.705Z,38.71
2018-08-10T11:40:55.750Z,38.51
2018-08-10T11:41:55.463Z,38.02
2018-08-10T11:42:55.468Z,37.54
2018-08-10T11:43:55.473Z,37.54
2018-08-10T11:44:55.830Z,37.62
2018-08-10T11:45:55.736Z,37.23
2018-08-10T11:46:55.741Z,37.43
2018-08-10T11:47:55.749Z,38.1
2018-08-10T11:48:55.752Z,38.01
2018-08-10T11:49:55.828Z,38.4
2018-08-10T11:50:55.763Z,37.99
2018-08-10T11:51:55.776Z,38.57
2018-08-10T11:52:55.773Z,38.48
2018-08-10T11:53:55.527Z,38.48
2018-08-10T11:54:55.783Z,38.09
2018-08-10T11:55:55.787Z,38.09
2018-08-10T11:56:55.541Z,38.28
2018-08-10T11:57:55.803Z,38.36
2018-08-10T11:58:55.805Z,38.07
2018-08-10T11:59:55.581Z,38.26
2018-08-10T12:00:55.819Z,38.83
2018-08-10T12:01:55.973Z,39.62
2018-08-10T12:02:55.824Z,39.7
2018-08-10T12:03:55.828Z,39.8
2018-08-10T12:04:55.830Z,40.17
2018-08-10T12:05:55.967Z,39.7
2018-08-10T12:06:55.838Z,39.59
2018-08-10T12:07:55.884Z,40.37
2018-08-10T12:08:55.848Z,40.08
2018-08-10T12:09:55.848Z,40.37
2018-08-10T12:10:55.854Z,40.17
2018-08-10T12:11:55.858Z,39.88
2018-08-10T12:12:56.001Z,38.81
2018-08-10T12:13:55.867Z,38.89
2018-08-10T12:14:55.870Z,40.25
2018-08-10T12:15:55.872Z,40.44
2018-08-10T12:16:55.876Z,40.44
2018-08-10T12:17:55.629Z,41.01
2018-08-10T12:18:55.636Z,40.33
2018-08-10T12:19:55.888Z,41.1
2018-08-10T12:20:55.897Z,41.1
2018-08-10T12:21:55.893Z,41.3
2018-08-10T12:22:55.899Z,41.69
2018-08-10T12:23:55.900Z,40.42
2018-08-10T12:24:55.907Z,40.23
2018-08-10T12:25:55.916Z,41.01
2018-08-10T12:26:55.659Z,41.39
2018-08-10T12:27:55.912Z,41.2
2018-08-10T12:28:55.915Z,40.83
2018-08-10T12:29:55.923Z,40.44
2018-08-10T12:30:55.926Z,40.34
2018-08-10T12:31:55.932Z,40.44
2018-08-10T12:32:55.931Z,39.57
2018-08-10T12:33:55.933Z,39.67
2018-08-10T12:34:55.937Z,38.79
2018-08-10T12:35:56.035Z,39.86
2018-08-10T12:36:55.943Z,39.57
2018-08-10T12:37:56.350Z,39.76
2018-08-10T12:38:55.948Z,40.25
2018-08-10T12:39:55.952Z,41.03
2018-08-10T12:40:55.955Z,40.25
2018-08-10T12:41:55.963Z,40.66
2018-08-10T12:42:55.965Z,41.14
2018-08-10T12:43:55.966Z,40.27
2018-08-10T12:44:55.970Z,39.78
2018-08-10T12:45:55.722Z,40.17
2018-08-10T12:46:55.978Z,40.27
2018-08-10T12:47:55.728Z,39.59
2018-08-10T12:48:55.984Z,39.39
2018-08-10T12:49:55.985Z,39.1
2018-08-10T12:50:55.989Z,39.1
2018-08-10T12:51:55.992Z,39.29
2018-08-10T12:52:55.745Z,39.1
2018-08-10T12:53:55.748Z,39.29
2018-08-10T12:54:56.003Z,39.59
2018-08-10T12:55:56.008Z,39